sensor_id;sensor_type;location;lat;lon;timestamp;pressure;altitude;pressure_sealevel;temperature;humidity
72330;BME280;69154;52.076;5.110;2023-05-22T00:02:21;101681.55;;;16.48;32.66
72330;BME280;69154;52.076;5.110;2023-05-22T00:04:47;101679.00;;;14.58;35.69
72330;BME280;69154;52.076;5.110;2023-05-22T00:07:12;101670.78;;;15.58;34.87
72330;BME280;69154;52.076;5.110;2023-05-22T00:09:38;101662.56;;;16.38;33.48
72330;BME280;69154;52.076;5.110;2023-05-22T00:12:04;101656.68;;;16.95;32.98
72330;BME280;69154;52.076;5.110;2023-05-22T00:14:29;101645.83;;;17.44;32.26
72330;BME280;69154;52.076;5.110;2023-05-22T00:16:54;101642.73;;;17.87;31.59
72330;BME280;69154;52.076;5.110;2023-05-22T00:19:20;101635.82;;;17.28;31.53
72330;BME280;69154;52.076;5.110;2023-05-22T00:21:46;101633.89;;;18.00;32.10
72330;BME280;69154;52.076;5.110;2023-05-22T00:24:11;101635.40;;;17.84;31.13
72330;BME280;69154;52.076;5.110;2023-05-22T00:26:37;101626.02;;;19.31;30.12
72330;BME280;69154;52.076;5.110;2023-05-22T00:29:02;101611.18;;;18.43;30.62
72330;BME280;69154;52.076;5.110;2023-05-22T00:31:27;101611.95;;;18.09;30.79
72330;BME280;69154;52.076;5.110;2023-05-22T00:33:53;101607.32;;;17.77;31.21
72330;BME280;69154;52.076;5.110;2023-05-22T00:36:18;101605.62;;;17.81;30.59
72330;BME280;69154;52.076;5.110;2023-05-22T00:38:44;101602.72;;;19.04;30.17
72330;BME280;69154;52.076;5.110;2023-05-22T00:41:10;101597.61;;;17.04;31.79
72330;BME280;69154;52.076;5.110;2023-05-22T00:43:37;101596.60;;;17.34;31.99
72330;BME280;69154;52.076;5.110;2023-05-22T00:46:00;101601.98;;;16.29;33.09
72330;BME280;69154;52.076;5.110;2023-05-22T00:48:26;101599.97;;;15.81;34.18
72330;BME280;69154;52.076;5.110;2023-05-22T00:50:53;101592.16;;;16.17;34.69
72330;BME280;69154;52.076;5.110;2023-05-22T00:53:19;101588.72;;;14.71;35.67
72330;BME280;69154;52.076;5.110;2023-05-22T00:55:43;101587.11;;;15.46;35.65
72330;BME280;69154;52.076;5.110;2023-05-22T00:58:09;101587.05;;;14.67;36.14
72330;BME280;69154;52.076;5.110;2023-05-22T01:00:34;101593.23;;;14.86;36.66
72330;BME280;69154;52.076;5.110;2023-05-22T01:02:59;101594.69;;;14.09;37.22
72330;BME280;69154;52.076;5.110;2023-05-22T01:05:24;101597.16;;;14.87;36.90
72330;BME280;69154;52.076;5.110;2023-05-22T01:07:50;101600.87;;;14.80;36.70
72330;BME280;69154;52.076;5.110;2023-05-22T01:10:15;101603.11;;;14.28;36.68
72330;BME280;69154;52.076;5.110;2023-05-22T01:12:46;101597.69;;;15.34;36.58
72330;BME280;69154;52.076;5.110;2023-05-22T01:15:11;101597.15;;;14.55;36.83
72330;BME280;69154;52.076;5.110;2023-05-22T01:17:38;101595.31;;;15.50;35.66
72330;BME280;69154;52.076;5.110;2023-05-22T01:20:05;101586.97;;;15.88;35.00
72330;BME280;69154;52.076;5.110;2023-05-22T01:22:32;101589.10;;;15.57;34.91
72330;BME280;69154;52.076;5.110;2023-05-22T01:25:16;101587.75;;;16.04;34.70
72330;BME280;69154;52.076;5.110;2023-05-22T01:27:26;101583.72;;;15.92;34.07
72330;BME280;69154;52.076;5.110;2023-05-22T01:29:43;101583.44;;;16.34;34.25
72330;BME280;69154;52.076;5.110;2023-05-22T01:32:07;101584.18;;;15.05;35.06
72330;BME280;69154;52.076;5.110;2023-05-22T01:34:30;101580.48;;;16.35;34.71
72330;BME280;69154;52.076;5.110;2023-05-22T01:36:56;101580.41;;;15.97;34.61
72330;BME280;69154;52.076;5.110;2023-05-22T01:39:22;101584.17;;;15.77;34.01
72330;BME280;69154;52.076;5.110;2023-05-22T01:41:46;101579.82;;;15.96;33.64
72330;BME280;69154;52.076;5.110;2023-05-22T01:44:11;101581.15;;;15.94;33.29
72330;BME280;69154;52.076;5.110;2023-05-22T01:46:38;101586.81;;;17.20;32.57
72330;BME280;69154;52.076;5.110;2023-05-22T01:49:02;101584.75;;;17.20;31.70
72330;BME280;69154;52.076;5.110;2023-05-22T01:51:34;101582.93;;;17.83;31.46
72330;BME280;69154;52.076;5.110;2023-05-22T01:53:58;101579.08;;;17.91;31.37
72330;BME280;69154;52.076;5.110;2023-05-22T01:56:23;101575.45;;;17.21;31.28
72330;BME280;69154;52.076;5.110;2023-05-22T01:58:49;101571.87;;;17.97;31.69
72330;BME280;69154;52.076;5.110;2023-05-22T02:01:11;101570.28;;;17.53;31.14
72330;BME280;69154;52.076;5.110;2023-05-22T02:03:37;101566.57;;;18.47;30.99
72330;BME280;69154;52.076;5.110;2023-05-22T02:06:05;101559.48;;;17.98;30.40
72330;BME280;69154;52.076;5.110;2023-05-22T02:08:28;101558.74;;;17.96;30.84
72330;BME280;69154;52.076;5.110;2023-05-22T02:10:54;101555.31;;;17.82;30.90
72330;BME280;69154;52.076;5.110;2023-05-22T02:13:18;101551.19;;;17.13;30.67
72330;BME280;69154;52.076;5.110;2023-05-22T02:15:44;101551.40;;;18.00;30.51
72330;BME280;69154;52.076;5.110;2023-05-22T02:18:10;101550.90;;;18.12;29.76
72330;BME280;69154;52.076;5.110;2023-05-22T02:20:35;101549.01;;;18.48;29.89
72330;BME280;69154;52.076;5.110;2023-05-22T02:23:00;101552.18;;;18.39;29.78
72330;BME280;69154;52.076;5.110;2023-05-22T02:25:26;101550.77;;;18.85;29.57
72330;BME280;69154;52.076;5.110;2023-05-22T02:27:52;101548.18;;;19.18;29.59
72330;BME280;69154;52.076;5.110;2023-05-22T02:30:18;101543.59;;;17.90;29.47
72330;BME280;69154;52.076;5.110;2023-05-22T02:32:42;101542.85;;;18.60;29.47
72330;BME280;69154;52.076;5.110;2023-05-22T02:35:08;101539.28;;;18.26;29.12
72330;BME280;69154;52.076;5.110;2023-05-22T02:37:34;101541.24;;;19.73;28.47
72330;BME280;69154;52.076;5.110;2023-05-22T02:39:59;101536.43;;;19.67;28.21
72330;BME280;69154;52.076;5.110;2023-05-22T02:42:25;101533.36;;;19.32;28.80
72330;BME280;69154;52.076;5.110;2023-05-22T02:44:51;101533.99;;;20.36;28.02
72330;BME280;69154;52.076;5.110;2023-05-22T02:47:16;101537.32;;;17.78;29.05
72330;BME280;69154;52.076;5.110;2023-05-22T02:49:41;101534.09;;;18.87;29.09
72330;BME280;69154;52.076;5.110;2023-05-22T02:52:07;101529.28;;;18.57;28.99
72330;BME280;69154;52.076;5.110;2023-05-22T02:54:32;101525.44;;;19.18;29.06
72330;BME280;69154;52.076;5.110;2023-05-22T02:56:57;101524.20;;;18.85;28.98
72330;BME280;69154;52.076;5.110;2023-05-22T02:59:23;101526.00;;;17.99;28.95
72330;BME280;69154;52.076;5.110;2023-05-22T03:01:49;101526.31;;;19.04;28.68
72330;BME280;69154;52.076;5.110;2023-05-22T03:04:13;101525.32;;;18.61;29.31
72330;BME280;69154;52.076;5.110;2023-05-22T03:06:38;101526.20;;;18.14;29.70
72330;BME280;69154;52.076;5.110;2023-05-22T03:09:03;101524.71;;;17.35;29.86
72330;BME280;69154;52.076;5.110;2023-05-22T03:11:28;101524.67;;;18.07;29.51
72330;BME280;69154;52.076;5.110;2023-05-22T03:13:54;101526.35;;;17.92;29.40
72330;BME280;69154;52.076;5.110;2023-05-22T03:16:20;101526.49;;;17.75;29.25
72330;BME280;69154;52.076;5.110;2023-05-22T03:18:45;101525.95;;;17.64;29.58
72330;BME280;69154;52.076;5.110;2023-05-22T03:21:10;101529.37;;;16.95;29.75
72330;BME280;69154;52.076;5.110;2023-05-22T03:23:35;101529.58;;;17.10;29.89
72330;BME280;69154;52.076;5.110;2023-05-22T03:26:01;101531.71;;;17.34;29.66
72330;BME280;69154;52.076;5.110;2023-05-22T03:28:27;101530.64;;;17.88;29.37
72330;BME280;69154;52.076;5.110;2023-05-22T03:30:53;101527.80;;;17.58;29.38
72330;BME280;69154;52.076;5.110;2023-05-22T03:33:18;101525.57;;;18.06;28.81
72330;BME280;69154;52.076;5.110;2023-05-22T03:35:43;101524.01;;;18.61;29.01
72330;BME280;69154;52.076;5.110;2023-05-22T03:38:08;101521.15;;;18.42;28.46
72330;BME280;69154;52.076;5.110;2023-05-22T03:40:34;101518.89;;;18.57;28.47
72330;BME280;69154;52.076;5.110;2023-05-22T03:42:59;101516.94;;;17.99;28.52
72330;BME280;69154;52.076;5.110;2023-05-22T03:45:25;101517.05;;;17.81;28.89
72330;BME280;69154;52.076;5.110;2023-05-22T03:47:51;101516.37;;;18.99;28.10
72330;BME280;69154;52.076;5.110;2023-05-22T03:50:16;101513.94;;;18.18;27.94
72330;BME280;69154;52.076;5.110;2023-05-22T03:52:41;101512.02;;;18.54;28.90
72330;BME280;69154;52.076;5.110;2023-05-22T03:55:08;101509.96;;;17.10;29.49
72330;BME280;69154;52.076;5.110;2023-05-22T03:57:33;101509.11;;;17.99;29.23
72330;BME280;69154;52.076;5.110;2023-05-22T03:59:58;101504.12;;;17.73;29.61
72330;BME280;69154;52.076;5.110;2023-05-22T04:02:24;101511.35;;;18.37;28.84
72330;BME280;69154;52.076;5.110;2023-05-22T04:04:49;101508.96;;;17.84;29.49
72330;BME280;69154;52.076;5.110;2023-05-22T04:07:15;101510.08;;;17.85;28.73
72330;BME280;69154;52.076;5.110;2023-05-22T04:09:40;101508.50;;;17.64;29.34
72330;BME280;69154;52.076;5.110;2023-05-22T04:12:07;101512.05;;;17.46;29.10
72330;BME280;69154;52.076;5.110;2023-05-22T04:14:31;101515.21;;;17.96;29.21
72330;BME280;69154;52.076;5.110;2023-05-22T04:16:58;101521.75;;;17.99;29.05
72330;BME280;69154;52.076;5.110;2023-05-22T04:19:22;101530.02;;;17.24;29.82
72330;BME280;69154;52.076;5.110;2023-05-22T04:21:49;101530.31;;;17.01;30.39
72330;BME280;69154;52.076;5.110;2023-05-22T04:24:14;101532.64;;;16.21;30.64
72330;BME280;69154;52.076;5.110;2023-05-22T04:26:39;101535.21;;;17.05;30.89
72330;BME280;69154;52.076;5.110;2023-05-22T04:29:05;101538.97;;;16.64;30.06
72330;BME280;69154;52.076;5.110;2023-05-22T04:31:31;101543.11;;;16.28;31.17
72330;BME280;69154;52.076;5.110;2023-05-22T04:33:56;101546.48;;;17.10;30.31
72330;BME280;69154;52.076;5.110;2023-05-22T04:36:21;101552.01;;;16.37;31.12
72330;BME280;69154;52.076;5.110;2023-05-22T04:38:47;101547.63;;;16.36;32.16
72330;BME280;69154;52.076;5.110;2023-05-22T04:41:13;101555.59;;;15.35;32.31
72330;BME280;69154;52.076;5.110;2023-05-22T04:43:38;101559.12;;;15.97;32.34
72330;BME280;69154;52.076;5.110;2023-05-22T04:46:03;101561.72;;;16.32;31.84
72330;BME280;69154;52.076;5.110;2023-05-22T04:48:29;101562.20;;;16.89;30.84
72330;BME280;69154;52.076;5.110;2023-05-22T04:50:55;101562.84;;;17.60;29.99
72330;BME280;69154;52.076;5.110;2023-05-22T04:53:20;101560.42;;;17.04;30.30
72330;BME280;69154;52.076;5.110;2023-05-22T04:55:45;101563.22;;;17.39;30.03
72330;BME280;69154;52.076;5.110;2023-05-22T04:58:11;101567.37;;;17.54;30.32
72330;BME280;69154;52.076;5.110;2023-05-22T05:00:35;101572.56;;;18.55;29.49
72330;BME280;69154;52.076;5.110;2023-05-22T05:03:00;101574.55;;;18.30;29.57
72330;BME280;69154;52.076;5.110;2023-05-22T05:05:26;101572.47;;;17.33;30.10
72330;BME280;69154;52.076;5.110;2023-05-22T05:07:51;101571.34;;;18.23;29.89
72330;BME280;69154;52.076;5.110;2023-05-22T05:10:17;101572.93;;;18.27;28.69
72330;BME280;69154;52.076;5.110;2023-05-22T05:12:42;101575.53;;;19.14;28.57
72330;BME280;69154;52.076;5.110;2023-05-22T05:15:08;101578.35;;;17.93;29.04
72330;BME280;69154;52.076;5.110;2023-05-22T05:17:33;101581.18;;;17.79;29.93
72330;BME280;69154;52.076;5.110;2023-05-22T05:19:59;101579.38;;;17.78;29.99
72330;BME280;69154;52.076;5.110;2023-05-22T05:22:25;101572.44;;;17.21;29.76
72330;BME280;69154;52.076;5.110;2023-05-22T05:24:50;101571.01;;;19.63;28.38
72330;BME280;69154;52.076;5.110;2023-05-22T05:27:15;101575.34;;;20.19;26.99
72330;BME280;69154;52.076;5.110;2023-05-22T05:29:41;101577.37;;;20.37;27.35
72330;BME280;69154;52.076;5.110;2023-05-22T05:32:07;101585.20;;;19.20;27.72
72330;BME280;69154;52.076;5.110;2023-05-22T05:34:32;101579.74;;;19.97;27.11
72330;BME280;69154;52.076;5.110;2023-05-22T05:36:57;101575.86;;;19.69;27.38
72330;BME280;69154;52.076;5.110;2023-05-22T05:39:23;101582.39;;;19.93;27.40
72330;BME280;69154;52.076;5.110;2023-05-22T05:41:49;101583.43;;;19.56;27.62
72330;BME280;69154;52.076;5.110;2023-05-22T05:44:14;101574.11;;;19.37;27.45
72330;BME280;69154;52.076;5.110;2023-05-22T05:46:40;101577.63;;;20.58;27.20
72330;BME280;69154;52.076;5.110;2023-05-22T05:49:06;101581.47;;;19.61;27.40
72330;BME280;69154;52.076;5.110;2023-05-22T05:51:30;101574.30;;;19.96;27.19
72330;BME280;69154;52.076;5.110;2023-05-22T05:53:55;101572.18;;;19.49;27.28
72330;BME280;69154;52.076;5.110;2023-05-22T05:56:21;101575.64;;;19.91;26.94
72330;BME280;69154;52.076;5.110;2023-05-22T05:58:46;101571.76;;;20.81;26.59
72330;BME280;69154;52.076;5.110;2023-05-22T06:01:13;101572.10;;;20.62;26.08
72330;BME280;69154;52.076;5.110;2023-05-22T06:03:37;101570.52;;;21.25;26.23
72330;BME280;69154;52.076;5.110;2023-05-22T06:06:02;101567.91;;;20.00;26.98
72330;BME280;69154;52.076;5.110;2023-05-22T06:08:28;101567.49;;;20.51;26.87
72330;BME280;69154;52.076;5.110;2023-05-22T06:10:54;101568.50;;;20.56;27.19
72330;BME280;69154;52.076;5.110;2023-05-22T06:13:19;101572.51;;;20.12;27.43
72330;BME280;69154;52.076;5.110;2023-05-22T06:15:44;101572.21;;;20.42;27.63
72330;BME280;69154;52.076;5.110;2023-05-22T06:18:11;101568.53;;;19.82;27.42
72330;BME280;69154;52.076;5.110;2023-05-22T06:20:35;101569.51;;;20.59;27.46
72330;BME280;69154;52.076;5.110;2023-05-22T06:23:01;101572.40;;;20.35;26.94
72330;BME280;69154;52.076;5.110;2023-05-22T06:25:26;101573.08;;;20.08;27.37
72330;BME280;69154;52.076;5.110;2023-05-22T06:27:52;101571.65;;;20.78;27.11
72330;BME280;69154;52.076;5.110;2023-05-22T06:30:17;101571.13;;;20.40;26.71
72330;BME280;69154;52.076;5.110;2023-05-22T06:32:42;101570.67;;;21.75;26.32
72330;BME280;69154;52.076;5.110;2023-05-22T06:35:09;101570.76;;;20.32;26.86
72330;BME280;69154;52.076;5.110;2023-05-22T06:37:33;101569.48;;;21.85;26.30
72330;BME280;69154;52.076;5.110;2023-05-22T06:39:58;101570.50;;;21.23;26.00
72330;BME280;69154;52.076;5.110;2023-05-22T06:42:23;101574.67;;;20.60;26.58
72330;BME280;69154;52.076;5.110;2023-05-22T06:44:49;101574.91;;;22.13;26.10
72330;BME280;69154;52.076;5.110;2023-05-22T06:47:14;101578.56;;;21.62;25.76
72330;BME280;69154;52.076;5.110;2023-05-22T06:49:39;101577.83;;;22.06;25.85
72330;BME280;69154;52.076;5.110;2023-05-22T06:52:06;101581.64;;;21.66;25.79
72330;BME280;69154;52.076;5.110;2023-05-22T06:54:30;101583.54;;;20.96;26.97
72330;BME280;69154;52.076;5.110;2023-05-22T06:56:56;101589.37;;;20.47;27.41
72330;BME280;69154;52.076;5.110;2023-05-22T06:59:21;101598.66;;;20.02;27.50
72330;BME280;69154;52.076;5.110;2023-05-22T07:01:46;101602.11;;;19.77;28.01
72330;BME280;69154;52.076;5.110;2023-05-22T07:04:12;101601.87;;;21.00;26.95
72330;BME280;69154;52.076;5.110;2023-05-22T07:06:38;101600.25;;;22.05;25.91
72330;BME280;69154;52.076;5.110;2023-05-22T07:09:02;101599.03;;;21.67;26.12
72330;BME280;69154;52.076;5.110;2023-05-22T07:11:28;101598.57;;;21.72;25.69
72330;BME280;69154;52.076;5.110;2023-05-22T07:13:53;101598.69;;;22.89;25.21
72330;BME280;69154;52.076;5.110;2023-05-22T07:16:18;101599.03;;;22.80;24.48
72330;BME280;69154;52.076;5.110;2023-05-22T07:18:43;101599.33;;;22.60;25.13
72330;BME280;69154;52.076;5.110;2023-05-22T07:21:09;101605.82;;;23.34;24.35
72330;BME280;69154;52.076;5.110;2023-05-22T07:23:34;101610.93;;;24.33;23.78
72330;BME280;69154;52.076;5.110;2023-05-22T07:26:00;101612.98;;;23.89;24.34
72330;BME280;69154;52.076;5.110;2023-05-22T07:28:25;101611.03;;;22.99;24.77
72330;BME280;69154;52.076;5.110;2023-05-22T07:30:51;101611.35;;;24.37;23.78
72330;BME280;69154;52.076;5.110;2023-05-22T07:33:16;101616.99;;;23.98;23.29
72330;BME280;69154;52.076;5.110;2023-05-22T07:35:41;101611.87;;;24.33;23.61
72330;BME280;69154;52.076;5.110;2023-05-22T07:38:07;101606.87;;;22.55;24.51
72330;BME280;69154;52.076;5.110;2023-05-22T07:40:33;101606.93;;;23.36;24.52
72330;BME280;69154;52.076;5.110;2023-05-22T07:42:58;101606.50;;;22.19;25.14
72330;BME280;69154;52.076;5.110;2023-05-22T07:45:24;101608.58;;;23.59;24.33
72330;BME280;69154;52.076;5.110;2023-05-22T07:47:49;101607.49;;;22.91;25.09
72330;BME280;69154;52.076;5.110;2023-05-22T07:50:14;101606.53;;;22.54;24.95
72330;BME280;69154;52.076;5.110;2023-05-22T07:52:39;101607.91;;;22.93;25.13
72330;BME280;69154;52.076;5.110;2023-05-22T07:55:06;101603.90;;;23.07;24.85
72330;BME280;69154;52.076;5.110;2023-05-22T07:57:31;101606.34;;;24.76;24.03
72330;BME280;69154;52.076;5.110;2023-05-22T07:59:56;101612.15;;;24.11;24.73
72330;BME280;69154;52.076;5.110;2023-05-22T08:02:21;101611.62;;;25.51;23.88
72330;BME280;69154;52.076;5.110;2023-05-22T08:04:47;101607.58;;;26.39;22.45
72330;BME280;69154;52.076;5.110;2023-05-22T08:07:12;101613.40;;;24.23;23.44
72330;BME280;69154;52.076;5.110;2023-05-22T08:09:38;101613.36;;;25.35;23.29
72330;BME280;69154;52.076;5.110;2023-05-22T08:12:04;101612.58;;;25.14;23.25
72330;BME280;69154;52.076;5.110;2023-05-22T08:14:29;101619.78;;;23.82;24.33
72330;BME280;69154;52.076;5.110;2023-05-22T08:16:54;101616.62;;;23.10;25.29
72330;BME280;69154;52.076;5.110;2023-05-22T08:19:20;101616.43;;;23.03;25.24
72330;BME280;69154;52.076;5.110;2023-05-22T08:21:46;101618.05;;;23.38;25.71
72330;BME280;69154;52.076;5.110;2023-05-22T08:24:11;101612.17;;;23.33;25.29
72330;BME280;69154;52.076;5.110;2023-05-22T08:26:36;101612.78;;;23.54;25.41
72330;BME280;69154;52.076;5.110;2023-05-22T08:29:01;101611.12;;;23.29;25.45
72330;BME280;69154;52.076;5.110;2023-05-22T08:31:26;101601.74;;;22.40;26.84
72330;BME280;69154;52.076;5.110;2023-05-22T08:33:52;101605.06;;;24.28;26.08
72330;BME280;69154;52.076;5.110;2023-05-22T08:36:18;101605.58;;;23.65;24.93
72330;BME280;69154;52.076;5.110;2023-05-22T08:38:43;101602.74;;;23.97;25.64
72330;BME280;69154;52.076;5.110;2023-05-22T08:41:09;101603.17;;;24.38;24.56
72330;BME280;69154;52.076;5.110;2023-05-22T08:43:34;101595.03;;;26.69;23.12
72330;BME280;69154;52.076;5.110;2023-05-22T08:46:03;101597.54;;;26.64;23.13
72330;BME280;69154;52.076;5.110;2023-05-22T08:48:29;101599.40;;;26.17;22.72
72330;BME280;69154;52.076;5.110;2023-05-22T08:50:52;101595.65;;;27.28;22.57
72330;BME280;69154;52.076;5.110;2023-05-22T08:53:16;101595.31;;;26.47;22.29
72330;BME280;69154;52.076;5.110;2023-05-22T08:55:41;101589.85;;;26.47;22.30
72330;BME280;69154;52.076;5.110;2023-05-22T08:58:07;101589.30;;;26.55;22.30
72330;BME280;69154;52.076;5.110;2023-05-22T09:00:33;101586.39;;;27.31;22.20
72330;BME280;69154;52.076;5.110;2023-05-22T09:02:58;101584.19;;;27.93;21.38
72330;BME280;69154;52.076;5.110;2023-05-22T09:05:23;101588.32;;;26.14;22.60
72330;BME280;69154;52.076;5.110;2023-05-22T09:07:50;101591.90;;;25.15;23.78
72330;BME280;69154;52.076;5.110;2023-05-22T09:10:15;101589.27;;;25.51;23.34
72330;BME280;69154;52.076;5.110;2023-05-22T09:12:59;101588.71;;;26.54;22.74
72330;BME280;69154;52.076;5.110;2023-05-22T09:15:09;101587.16;;;27.18;21.64
72330;BME280;69154;52.076;5.110;2023-05-22T09:17:29;101584.55;;;28.19;20.90
72330;BME280;69154;52.076;5.110;2023-05-22T09:20:03;101579.28;;;26.71;22.20
72330;BME280;69154;52.076;5.110;2023-05-22T09:22:21;101579.41;;;26.91;22.06
72330;BME280;69154;52.076;5.110;2023-05-22T09:24:46;101575.34;;;29.65;20.56
72330;BME280;69154;52.076;5.110;2023-05-22T09:27:11;101575.79;;;30.49;19.46
72330;BME280;69154;52.076;5.110;2023-05-22T09:29:55;101572.83;;;32.05;18.74
72330;BME280;69154;52.076;5.110;2023-05-22T09:32:02;101574.03;;;32.89;17.40
72330;BME280;69154;52.076;5.110;2023-05-22T09:34:28;101571.49;;;36.43;15.69
72330;BME280;69154;52.076;5.110;2023-05-22T09:36:53;101565.02;;;37.84;14.68
72330;BME280;69154;52.076;5.110;2023-05-22T09:39:18;101559.99;;;39.40;13.26
72330;BME280;69154;52.076;5.110;2023-05-22T09:41:44;101556.45;;;38.12;13.57
72330;BME280;69154;52.076;5.110;2023-05-22T09:44:11;101557.91;;;35.50;14.63
72330;BME280;69154;52.076;5.110;2023-05-22T09:46:39;101556.09;;;37.50;13.82
72330;BME280;69154;52.076;5.110;2023-05-22T09:49:01;101555.55;;;38.90;12.88
72330;BME280;69154;52.076;5.110;2023-05-22T09:51:26;101551.79;;;39.86;12.62
72330;BME280;69154;52.076;5.110;2023-05-22T09:53:59;101550.04;;;36.07;13.92
72330;BME280;69154;52.076;5.110;2023-05-22T09:56:18;101553.25;;;36.16;14.03
72330;BME280;69154;52.076;5.110;2023-05-22T09:58:44;101554.25;;;35.68;14.33
72330;BME280;69154;52.076;5.110;2023-05-22T10:01:09;101553.29;;;35.18;14.65
72330;BME280;69154;52.076;5.110;2023-05-22T10:03:34;101546.07;;;37.76;13.52
72330;BME280;69154;52.076;5.110;2023-05-22T10:06:00;101544.36;;;38.45;13.21
72330;BME280;69154;52.076;5.110;2023-05-22T10:08:27;101542.73;;;38.83;12.57
72330;BME280;69154;52.076;5.110;2023-05-22T10:10:51;101538.01;;;43.08;11.23
72330;BME280;69154;52.076;5.110;2023-05-22T10:13:16;101532.26;;;44.57;10.15
72330;BME280;69154;52.076;5.110;2023-05-22T10:15:41;101531.08;;;47.04;9.00
72330;BME280;69154;52.076;5.110;2023-05-22T10:18:06;101531.12;;;46.58;8.48
72330;BME280;69154;52.076;5.110;2023-05-22T10:20:32;101525.63;;;41.91;10.03
72330;BME280;69154;52.076;5.110;2023-05-22T10:22:57;101529.95;;;38.45;11.61
72330;BME280;69154;52.076;5.110;2023-05-22T10:25:22;101527.69;;;37.06;12.39
72330;BME280;69154;52.076;5.110;2023-05-22T10:27:51;101525.73;;;38.48;12.44
72330;BME280;69154;52.076;5.110;2023-05-22T10:30:20;101526.88;;;38.35;12.13
72330;BME280;69154;52.076;5.110;2023-05-22T10:32:40;101521.62;;;38.33;12.31
72330;BME280;69154;52.076;5.110;2023-05-22T10:35:10;101512.99;;;37.62;13.11
72330;BME280;69154;52.076;5.110;2023-05-22T10:37:40;101519.24;;;38.33;13.28
72330;BME280;69154;52.076;5.110;2023-05-22T10:40:00;101520.07;;;37.60;13.30
72330;BME280;69154;52.076;5.110;2023-05-22T10:42:20;101519.09;;;37.19;13.62
72330;BME280;69154;52.076;5.110;2023-05-22T10:44:46;101517.30;;;38.23;12.89
72330;BME280;69154;52.076;5.110;2023-05-22T10:47:11;101522.76;;;34.53;14.64
72330;BME280;69154;52.076;5.110;2023-05-22T10:49:36;101517.32;;;37.03;13.61
72330;BME280;69154;52.076;5.110;2023-05-22T10:52:02;101516.13;;;38.14;12.91
72330;BME280;69154;52.076;5.110;2023-05-22T10:54:44;101519.27;;;34.39;14.40
72330;BME280;69154;52.076;5.110;2023-05-22T10:57:08;101519.96;;;33.22;15.89
72330;BME280;69154;52.076;5.110;2023-05-22T10:59:33;101518.44;;;32.25;16.01
72330;BME280;69154;52.076;5.110;2023-05-22T11:01:43;101519.27;;;30.52;18.04
72330;BME280;69154;52.076;5.110;2023-05-22T11:04:10;101521.51;;;35.29;15.46
72330;BME280;69154;52.076;5.110;2023-05-22T11:06:36;101515.19;;;40.13;12.75
72330;BME280;69154;52.076;5.110;2023-05-22T11:09:16;101514.86;;;42.52;11.38
72330;BME280;69154;52.076;5.110;2023-05-22T11:11:26;101511.68;;;39.42;12.15
72330;BME280;69154;52.076;5.110;2023-05-22T11:13:52;101507.27;;;37.83;12.71
72330;BME280;69154;52.076;5.110;2023-05-22T11:16:17;101507.21;;;39.76;11.09
72330;BME280;69154;52.076;5.110;2023-05-22T11:18:42;101505.04;;;41.74;10.55
72330;BME280;69154;52.076;5.110;2023-05-22T11:21:09;101500.23;;;41.73;11.07
72330;BME280;69154;52.076;5.110;2023-05-22T11:23:33;101495.84;;;45.61;9.41
72330;BME280;69154;52.076;5.110;2023-05-22T11:26:16;101499.60;;;42.27;9.46
72330;BME280;69154;52.076;5.110;2023-05-22T11:28:24;101500.75;;;40.05;10.60
72330;BME280;69154;52.076;5.110;2023-05-22T11:30:51;101495.51;;;36.94;11.65
72330;BME280;69154;52.076;5.110;2023-05-22T11:33:14;101497.93;;;35.66;12.44
72330;BME280;69154;52.076;5.110;2023-05-22T11:35:41;101495.22;;;39.67;11.55
72330;BME280;69154;52.076;5.110;2023-05-22T11:38:06;101490.73;;;42.22;10.22
72330;BME280;69154;52.076;5.110;2023-05-22T11:40:31;101491.89;;;43.59;9.72
72330;BME280;69154;52.076;5.110;2023-05-22T11:42:56;101493.80;;;44.14;9.57
72330;BME280;69154;52.076;5.110;2023-05-22T11:45:21;101488.54;;;43.89;9.62
72330;BME280;69154;52.076;5.110;2023-05-22T11:47:46;101491.76;;;43.20;9.70
72330;BME280;69154;52.076;5.110;2023-05-22T11:50:12;101484.90;;;43.84;9.02
72330;BME280;69154;52.076;5.110;2023-05-22T11:52:39;101482.15;;;45.13;9.09
72330;BME280;69154;52.076;5.110;2023-05-22T11:55:04;101485.08;;;44.41;8.94
72330;BME280;69154;52.076;5.110;2023-05-22T11:57:28;101481.27;;;44.28;9.11
72330;BME280;69154;52.076;5.110;2023-05-22T11:59:54;101482.88;;;46.20;8.82
72330;BME280;69154;52.076;5.110;2023-05-22T12:02:19;101476.71;;;42.93;8.95
72330;BME280;69154;52.076;5.110;2023-05-22T12:04:45;101479.80;;;42.66;9.80
72330;BME280;69154;52.076;5.110;2023-05-22T12:07:10;101488.91;;;38.38;10.97
72330;BME280;69154;52.076;5.110;2023-05-22T12:09:38;101489.39;;;38.99;11.86
72330;BME280;69154;52.076;5.110;2023-05-22T12:12:01;101489.06;;;36.51;12.42
72330;BME280;69154;52.076;5.110;2023-05-22T12:14:26;101490.90;;;34.42;14.47
72330;BME280;69154;52.076;5.110;2023-05-22T12:16:52;101487.80;;;38.82;12.79
72330;BME280;69154;52.076;5.110;2023-05-22T12:19:17;101486.24;;;38.65;11.93
72330;BME280;69154;52.076;5.110;2023-05-22T12:21:43;101488.77;;;37.82;12.45
72330;BME280;69154;52.076;5.110;2023-05-22T12:24:08;101486.71;;;38.16;12.16
72330;BME280;69154;52.076;5.110;2023-05-22T12:26:35;101489.35;;;39.02;12.06
72330;BME280;69154;52.076;5.110;2023-05-22T12:28:59;101488.15;;;43.03;10.26
72330;BME280;69154;52.076;5.110;2023-05-22T12:31:24;101488.52;;;41.78;9.87
72330;BME280;69154;52.076;5.110;2023-05-22T12:33:53;101493.86;;;36.03;12.37
72330;BME280;69154;52.076;5.110;2023-05-22T12:36:15;101493.15;;;35.06;13.62
72330;BME280;69154;52.076;5.110;2023-05-22T12:38:41;101498.12;;;35.83;13.86
72330;BME280;69154;52.076;5.110;2023-05-22T12:41:06;101499.05;;;34.01;14.48